Springwater, NY (14560)

1:33 PM EDT on July 01, 2015 (GMT -0400)
Canadice, New York | | Change Station
CLOSE
Current Station
Personal Weather Station
Location: Springwater, NY
Elevation: 1490 ft
Nearby Weather Stations

Elev 1490 ft 42.68 °N, 77.56 °W | Updated 20 seconds ago

Overcast
Overcast
65.7 °F
Feels Like 65.7 °F
N
1.7
Wind Variable Wind from West

Today
High -- | Low -- °F
--% Chance of Precip.
Yesterday
High -- | Low -- °F
Precip. -- in
5:36 AM 8:52 PM
Full, 100% visible
Pressure 29.81 in
Visibility 10.0 miles
Clouds Few 3500 ft
Overcast 4800 ft
Dew Point 63 °F
Humidity 92%
Rainfall 0.48 in
Snow Depth Not available.
UV 3 out of 12
Pollen 2.70 out of 12
Air Quality Not available.
Flu Activity Not available.
METAR KDSV 011654Z AUTO 27011G21KT 10SM FEW035 OVC048 21/14 A2979 RMK AO2 SLP094 T02110144

More Conditions Fewer Conditions

Pressure 29.81 in
Visibility 10.0 miles
Clouds Few 3500 ft
Overcast 4800 ft
Dew Point 63 °F
Humidity 92%
Rainfall 0.48 in
Snow Depth Not available.
UV 3 out of 12
Pollen 2.70 out of 12
Air Quality Not available.
Flu Activity Not available.
METAR KDSV 011654Z AUTO 27011G21KT 10SM FEW035 OVC048 21/14 A2979 RMK AO2 SLP094 T02110144

More Conditions Fewer Conditions

10-Day Weather Forecast

×

Almanac

Astronomy

Jul. 01, 2015 Rise Set
Actual Time
Civil Twilight
Nautical Twilight
Astronomical Twilight
Moon
Length of Visible Light
Length of Day
Tomorrow will be .
, % of the Moon is Illuminated

Today's Extremes

State Highs State Lows

Community

WunderPhotos

Upload Photos

1,834,216 photos uploaded!

WunderBlogs® & News

Nearby

Air Quality

  Air Quality AQ Index Pollutant
Not available.

Snow Depth

Station Depth Elevation

Earthquake Activity

City Distance Mag. Time & Date
Minimum magnitude displayed is 2.5.

Coastal Water Temperatures

Place Temperature

Stations

Nearby Weather Stations

Station Location Temp. Windchill Dew Point Humidity Wind Precip. Elev Updated Type